Time;durP1;ratioP1;P1;durP2;ratioP2;P2;SDS_P1;SDS_P2;PMS_P1;PMS_P2;Temp;Humidity;BMP_temperature;BMP_pressure;BME280_temperature;BME280_humidity;BME280_pressure;Samples;Min_cycle;Max_cycle;Signal;HPM_P1;HPM_P2
2021/11/08 00:01:15;;;;;;;10.93;3.55;;;8.70;99.90;;;;;;5004672;28;20033;-93
2021/11/08 00:03:45;;;;;;;13.57;3.38;;;8.80;99.90;;;;;;4985944;28;20458;-92
2021/11/08 00:06:11;;;;;;;14.75;3.60;;;8.70;99.90;;;;;;4983553;28;20056;-93
2021/11/08 00:08:38;;;;;;;11.77;3.03;;;8.70;99.90;;;;;;4965401;28;20030;-92
2021/11/08 00:11:05;;;;;;;13.68;3.25;;;8.70;99.90;;;;;;4981681;28;20038;-93
2021/11/08 00:13:31;;;;;;;13.98;3.95;;;8.70;99.90;;;;;;4965133;28;20502;-92
2021/11/08 00:20:53;;;;;;;10.50;3.58;;;8.70;99.90;;;;;;4980997;28;20041;-93
2021/11/08 00:23:19;;;;;;;11.23;2.95;;;8.60;99.90;;;;;;4980901;28;20026;-92
2021/11/08 00:25:45;;;;;;;12.15;3.28;;;8.60;99.90;;;;;;4979758;28;20026;-91
2021/11/08 00:28:13;;;;;;;10.88;3.28;;;8.60;99.90;;;;;;4980330;28;20037;-93
2021/11/08 00:30:40;;;;;;;11.38;3.25;;;8.60;99.90;;;;;;4979856;28;20030;-92
2021/11/08 00:33:14;;;;;;;13.98;3.08;;;8.60;99.90;;;;;;4979905;28;20076;-92
2021/11/08 00:35:41;;;;;;;13.00;3.40;;;8.60;99.90;;;;;;4979285;28;20026;-92
2021/11/08 00:38:07;;;;;;;11.50;3.40;;;8.50;99.90;;;;;;4980031;28;20455;-93
2021/11/08 00:40:34;;;;;;;12.13;3.40;;;8.50;99.90;;;;;;4980544;28;20034;-92
2021/11/08 00:43:00;;;;;;;11.63;3.53;;;8.50;99.90;;;;;;4979749;28;20040;-93
2021/11/08 00:45:26;;;;;;;10.82;2.95;;;8.40;99.90;;;;;;4963883;28;20102;-92
2021/11/08 00:47:55;;;;;;;13.70;3.38;;;8.50;99.90;;;;;;4996744;28;20026;-93
2021/11/08 00:50:22;;;;;;;12.40;3.22;;;8.40;99.90;;;;;;4964225;28;20077;-92
2021/11/08 00:52:49;;;;;;;12.13;3.45;;;8.40;99.90;;;;;;4979646;28;20117;-92
2021/11/08 00:55:15;;;;;;;9.93;3.30;;;8.50;99.90;;;;;;4979888;28;20018;-92
2021/11/08 00:57:44;;;;;;;10.10;3.15;;;8.50;99.90;;;;;;4963469;28;20030;-93
2021/11/08 01:00:13;;;;;;;14.95;3.85;;;8.40;99.90;;;;;;4964064;28;20054;-92
2021/11/08 01:02:39;;;;;;;10.65;3.70;;;8.40;99.90;;;;;;4963358;28;20456;-93
2021/11/08 01:05:07;;;;;;;13.75;3.92;;;8.50;99.90;;;;;;4963616;28;20117;-92
2021/11/08 01:07:33;;;;;;;8.68;3.28;;;8.40;99.90;;;;;;4963556;28;20109;-92
2021/11/08 01:09:59;;;;;;;10.23;3.50;;;8.40;99.90;;;;;;4963422;28;20058;-93
2021/11/08 01:12:25;;;;;;;11.27;3.85;;;8.40;99.90;;;;;;4979697;28;20550;-92
2021/11/08 01:14:54;;;;;;;10.80;3.20;;;8.40;99.90;;;;;;4992076;28;20022;-93
2021/11/08 01:17:21;;;;;;;11.55;3.30;;;8.40;99.90;;;;;;4980616;28;20022;-94
2021/11/08 01:19:48;;;;;;;14.07;4.10;;;8.30;99.90;;;;;;4980238;28;20041;-92
2021/11/08 01:22:18;;;;;;;13.15;3.60;;;8.30;99.90;;;;;;4979627;28;20057;-92
2021/11/08 01:24:56;;;;;;;9.32;3.28;;;8.30;99.90;;;;;;4964022;28;20030;-91
2021/11/08 01:27:36;;;;;;;12.32;3.60;;;8.30;99.90;;;;;;4996377;28;20049;-92
2021/11/08 01:30:19;;;;;;;11.43;3.17;;;8.30;99.90;;;;;;4978842;28;20037;-92
2021/11/08 01:33:01;;;;;;;12.38;3.33;;;8.30;99.90;;;;;;4979509;28;20482;-92
2021/11/08 01:35:39;;;;;;;13.65;3.20;;;8.20;99.90;;;;;;4996157;28;20022;-92
2021/11/08 01:38:11;;;;;;;10.00;3.80;;;8.20;99.90;;;;;;4996655;28;20026;-91
2021/11/08 01:40:39;;;;;;;10.95;3.50;;;8.20;99.90;;;;;;4996255;28;20113;-92
2021/11/08 01:43:07;;;;;;;10.73;3.35;;;8.20;99.90;;;;;;4995433;28;20120;-94
2021/11/08 01:45:33;;;;;;;11.82;3.65;;;8.10;99.90;;;;;;4979244;28;20023;-94
2021/11/08 01:47:58;;;;;;;15.88;3.97;;;8.10;99.90;;;;;;4962892;28;20141;-92
2021/11/08 01:50:26;;;;;;;14.77;3.85;;;8.10;99.90;;;;;;4978738;28;20081;-92
2021/11/08 01:52:53;;;;;;;9.88;3.50;;;8.10;99.90;;;;;;4971373;28;20049;-93
2021/11/08 01:55:26;;;;;;;11.48;3.67;;;8.10;99.90;;;;;;4969425;28;20467;-91
2021/11/08 01:57:52;;;;;;;11.68;3.63;;;8.10;99.90;;;;;;4991003;28;20042;-91
2021/11/08 02:00:22;;;;;;;11.43;3.08;;;8.00;99.90;;;;;;4974183;28;20027;-92
2021/11/08 02:02:48;;;;;;;14.45;3.25;;;8.00;99.90;;;;;;5001618;28;20034;-92
2021/11/08 02:05:17;;;;;;;11.75;3.50;;;8.00;99.90;;;;;;4984213;28;20038;-92
2021/11/08 02:07:45;;;;;;;13.07;4.00;;;8.00;99.90;;;;;;5002069;28;20026;-88
2021/11/08 02:10:14;;;;;;;11.30;3.38;;;7.90;99.90;;;;;;4968344;28;20019;-92
2021/11/08 02:12:40;;;;;;;14.13;3.35;;;7.90;99.90;;;;;;4983579;28;20542;-90
2021/11/08 02:15:11;;;;;;;12.88;3.45;;;7.90;99.90;;;;;;4979598;28;20019;-92
2021/11/08 02:17:37;;;;;;;9.85;3.10;;;7.80;99.90;;;;;;4978584;28;20137;-92
2021/11/08 02:20:14;;;;;;;10.18;3.13;;;7.80;99.90;;;;;;4962792;28;20038;-92
2021/11/08 02:22:40;;;;;;;12.20;3.50;;;7.80;99.90;;;;;;4995553;28;20023;-92
2021/11/08 02:25:07;;;;;;;8.30;2.88;;;7.70;99.90;;;;;;4962705;28;20037;-91
2021/11/08 02:27:33;;;;;;;7.90;2.80;;;7.70;99.90;;;;;;4962578;28;20034;-91
2021/11/08 02:29:59;;;;;;;8.23;2.75;;;7.70;99.90;;;;;;4978750;28;20027;-92
2021/11/08 02:32:25;;;;;;;8.20;2.58;;;7.70;99.90;;;;;;4978433;28;20166;-92
2021/11/08 02:34:51;;;;;;;7.18;2.38;;;7.60;99.90;;;;;;4962313;28;20165;-92
2021/11/08 02:37:17;;;;;;;12.85;3.30;;;7.60;99.90;;;;;;4946770;28;20431;-92
2021/11/08 02:39:46;;;;;;;7.78;3.17;;;7.50;99.90;;;;;;4982362;28;20369;-93
2021/11/08 02:42:12;;;;;;;9.25;2.90;;;7.50;99.90;;;;;;4966681;28;20034;-92
2021/11/08 02:44:38;;;;;;;9.18;3.15;;;7.50;99.90;;;;;;4965971;28;20356;-92
2021/11/08 02:47:03;;;;;;;11.35;3.13;;;7.50;99.90;;;;;;4966135;28;20026;-92
2021/11/08 02:49:37;;;;;;;13.95;3.33;;;7.40;99.90;;;;;;4982152;28;20054;-92
2021/11/08 02:52:08;;;;;;;10.23;3.58;;;7.30;99.90;;;;;;4966643;28;20034;-91
2021/11/08 02:54:40;;;;;;;10.43;3.40;;;7.30;99.90;;;;;;4983028;28;20007;-92
2021/11/08 02:57:07;;;;;;;6.43;2.80;;;7.30;99.90;;;;;;4999121;28;20026;-92
2021/11/08 02:59:36;;;;;;;7.93;3.00;;;7.20;99.90;;;;;;4965418;28;20057;-92
2021/11/08 03:02:03;;;;;;;9.85;2.67;;;7.20;99.90;;;;;;4997889;28;20030;-93
2021/11/08 03:04:33;;;;;;;10.45;3.40;;;7.20;99.90;;;;;;4965711;28;20094;-93
2021/11/08 03:06:59;;;;;;;7.43;3.28;;;7.20;99.90;;;;;;4965650;28;20029;-93
2021/11/08 03:09:33;;;;;;;11.25;3.17;;;7.20;99.90;;;;;;4965564;28;20059;-92
2021/11/08 03:12:02;;;;;;;12.85;3.78;;;7.10;99.90;;;;;;4981994;28;20116;-92
2021/11/08 03:14:31;;;;;;;10.80;3.35;;;7.10;99.90;;;;;;4952832;28;20034;-91
2021/11/08 03:16:59;;;;;;;10.93;4.13;;;7.10;99.90;;;;;;4967386;28;20034;-92
2021/11/08 03:19:36;;;;;;;12.25;3.80;;;7.10;99.90;;;;;;4966623;28;20038;-92
2021/11/08 03:22:18;;;;;;;11.63;3.50;;;7.10;99.90;;;;;;4969881;28;20040;-93
2021/11/08 03:24:56;;;;;;;10.45;3.50;;;7.10;99.90;;;;;;5001832;28;20046;-91
2021/11/08 03:27:49;;;;;;;11.40;3.30;;;7.10;99.90;;;;;;5004059;28;20027;-91
2021/11/08 03:30:19;;;;;;;12.60;3.97;;;7.10;99.90;;;;;;5019993;28;20073;-92
2021/11/08 03:32:46;;;;;;;14.55;3.65;;;7.10;99.90;;;;;;5003884;28;20010;-91
2021/11/08 03:35:14;;;;;;;13.55;4.05;;;7.20;99.90;;;;;;5020759;28;20086;-90
2021/11/08 03:37:43;;;;;;;10.23;3.20;;;7.20;99.90;;;;;;4988126;28;20018;-91
2021/11/08 03:40:13;;;;;;;12.38;3.35;;;7.20;99.90;;;;;;4987240;28;20019;-92
2021/11/08 03:42:40;;;;;;;13.80;4.13;;;7.30;99.90;;;;;;5019420;28;20034;-92
2021/11/08 03:45:07;;;;;;;13.35;4.15;;;7.30;99.90;;;;;;4988396;28;20286;-92
2021/11/08 03:47:35;;;;;;;10.00;3.45;;;7.30;99.90;;;;;;4981789;28;20073;-91
2021/11/08 03:50:00;;;;;;;11.32;3.08;;;7.30;99.90;;;;;;4998448;28;20027;-92
2021/11/08 03:52:26;;;;;;;16.77;3.45;;;7.30;99.90;;;;;;4965848;28;20026;-92
2021/11/08 03:54:52;;;;;;;10.88;3.65;;;7.30;99.90;;;;;;4949458;28;20060;-92
2021/11/08 03:57:18;;;;;;;10.20;3.10;;;7.30;99.90;;;;;;4981343;28;20034;-91
2021/11/08 03:59:44;;;;;;;15.55;3.63;;;7.20;99.90;;;;;;4981215;28;20457;-91
2021/11/08 04:02:09;;;;;;;8.10;3.20;;;7.20;99.90;;;;;;4997095;28;20050;-91
2021/11/08 04:04:35;;;;;;;14.82;3.80;;;7.20;99.90;;;;;;4967031;28;20145;-90
2021/11/08 04:07:02;;;;;;;15.75;4.03;;;7.20;99.90;;;;;;4980625;28;20023;-91
2021/11/08 04:09:28;;;;;;;10.52;3.42;;;7.20;99.90;;;;;;4990600;28;20038;-89
2021/11/08 04:11:55;;;;;;;9.02;3.55;;;7.20;99.90;;;;;;4965791;28;20041;-91
2021/11/08 04:14:21;;;;;;;13.18;4.25;;;7.20;99.90;;;;;;4998074;28;20033;-93
2021/11/08 04:16:47;;;;;;;14.02;4.07;;;7.20;99.90;;;;;;4980580;28;20031;-92
2021/11/08 04:19:13;;;;;;;10.10;3.22;;;7.10;99.90;;;;;;4980569;28;20033;-92
2021/11/08 04:21:40;;;;;;;14.82;4.38;;;7.10;99.90;;;;;;4980627;28;20026;-91
2021/11/08 04:24:06;;;;;;;10.73;3.80;;;7.10;99.90;;;;;;4996724;28;20093;-91
2021/11/08 04:26:34;;;;;;;13.63;4.10;;;7.10;99.90;;;;;;4963425;28;20064;-90
2021/11/08 04:29:02;;;;;;;12.68;4.05;;;7.10;99.90;;;;;;4963920;28;20475;-91
2021/11/08 04:31:29;;;;;;;12.55;3.83;;;7.10;99.90;;;;;;4964249;28;20470;-91
2021/11/08 04:34:17;;;;;;;14.02;4.03;;;7.10;99.90;;;;;;4980569;28;20030;-91
2021/11/08 04:39:40;;;;;;;10.85;3.85;;;7.10;99.90;;;;;;4997279;28;20455;-91
2021/11/08 04:42:22;;;;;;;11.90;3.80;;;7.10;99.90;;;;;;4980118;28;20026;-89
2021/11/08 04:45:15;;;;;;;11.43;4.88;;;7.10;99.90;;;;;;4968389;28;20529;-91
2021/11/08 04:53:08;;;;;;;10.90;3.83;;;7.10;99.90;;;;;;4980567;28;20038;-91
2021/11/08 05:30:09;;;;;;;13.45;3.50;;;6.90;99.90;;;;;;4996565;28;20185;-90
2021/11/08 05:32:41;;;;;;;10.90;3.90;;;6.90;99.90;;;;;;4979307;28;20479;-92
2021/11/08 05:35:10;;;;;;;13.52;4.20;;;6.90;99.90;;;;;;4979227;28;20029;-92
2021/11/08 05:37:37;;;;;;;13.55;4.00;;;6.90;99.90;;;;;;4979211;28;20026;-91
2021/11/08 05:40:27;;;;;;;9.80;3.50;;;6.90;99.90;;;;;;4979252;28;20467;-91
2021/11/08 05:42:53;;;;;;;9.50;3.88;;;6.90;99.90;;;;;;4995003;28;20034;-89
2021/11/08 05:45:19;;;;;;;9.38;3.22;;;7.00;99.90;;;;;;4962652;28;20501;-91
2021/11/08 05:47:45;;;;;;;10.48;3.50;;;7.00;99.90;;;;;;4995153;28;20038;-91
2021/11/08 05:50:14;;;;;;;7.13;3.35;;;7.00;99.90;;;;;;4979079;28;20034;-91
2021/11/08 05:52:41;;;;;;;10.93;3.70;;;7.00;99.90;;;;;;4996256;28;20030;-91
2021/11/08 05:55:10;;;;;;;10.10;3.67;;;7.00;99.90;;;;;;4978737;28;20031;-90
2021/11/08 05:57:49;;;;;;;12.40;4.03;;;6.90;99.90;;;;;;4978623;28;20031;-90
2021/11/08 06:50:08;;;;;;;14.73;4.38;;;7.10;99.90;;;;;;4998220;28;20049;-91
2021/11/08 06:52:34;;;;;;;15.68;4.68;;;7.10;99.90;;;;;;4980613;28;20035;-93
2021/11/08 06:55:05;;;;;;;11.77;4.20;;;7.10;99.90;;;;;;4981276;28;20508;-92
2021/11/08 06:57:32;;;;;;;14.45;4.38;;;7.10;99.90;;;;;;4981493;28;20023;-93
2021/11/08 06:59:58;;;;;;;15.40;4.45;;;7.10;99.90;;;;;;4997664;28;20058;-93
2021/11/08 07:02:25;;;;;;;14.55;4.82;;;7.10;99.90;;;;;;4981424;28;20030;-93
2021/11/08 07:04:52;;;;;;;14.88;4.75;;;7.20;99.90;;;;;;4965244;28;20026;-94
2021/11/08 07:07:18;;;;;;;17.42;4.88;;;7.20;99.90;;;;;;4981316;28;20124;-94
2021/11/08 07:09:44;;;;;;;15.82;4.85;;;7.20;99.90;;;;;;4981570;28;20037;-93
2021/11/08 07:12:11;;;;;;;13.80;4.38;;;7.20;99.90;;;;;;4949407;28;20030;-92
2021/11/08 07:14:38;;;;;;;10.23;4.10;;;7.20;99.90;;;;;;4998505;28;20505;-93
2021/11/08 07:17:04;;;;;;;13.98;5.10;;;7.20;99.90;;;;;;4965194;28;20527;-92
2021/11/08 07:19:31;;;;;;;18.38;5.40;;;7.20;99.90;;;;;;4948929;28;20030;-93
2021/11/08 07:21:57;;;;;;;17.40;5.63;;;7.30;99.90;;;;;;4981388;28;20105;-93
2021/11/08 07:24:24;;;;;;;19.27;5.70;;;7.20;99.90;;;;;;4999959;28;20463;-93
2021/11/08 07:26:50;;;;;;;15.52;5.20;;;7.30;99.90;;;;;;4987866;28;20030;-92
2021/11/08 07:29:16;;;;;;;15.25;4.88;;;7.30;99.90;;;;;;4987825;28;20056;-90
2021/11/08 07:31:43;;;;;;;17.48;5.20;;;7.30;99.90;;;;;;5003463;28;20030;-92
2021/11/08 07:34:10;;;;;;;13.20;4.80;;;7.30;99.90;;;;;;4967111;28;20053;-92
2021/11/08 07:36:38;;;;;;;16.27;5.18;;;7.40;99.90;;;;;;4980728;28;20398;-92
2021/11/08 07:39:05;;;;;;;15.70;5.47;;;7.40;99.90;;;;;;4997971;28;20033;-93
2021/11/08 07:41:32;;;;;;;13.82;5.57;;;7.40;99.90;;;;;;4997525;28;20029;-92
2021/11/08 07:43:59;;;;;;;14.65;4.65;;;7.40;99.90;;;;;;4966894;28;20418;-93
2021/11/08 07:46:24;;;;;;;17.23;5.22;;;7.40;99.90;;;;;;4985268;28;20482;-93
2021/11/08 07:48:50;;;;;;;14.77;5.68;;;7.40;99.90;;;;;;5001936;28;20026;-93
2021/11/08 07:51:18;;;;;;;16.55;5.20;;;7.40;99.90;;;;;;4965652;28;20031;-93
2021/11/08 07:53:44;;;;;;;16.25;5.38;;;7.40;99.90;;;;;;4980097;28;20045;-93
2021/11/08 07:56:10;;;;;;;13.18;5.38;;;7.50;99.90;;;;;;4963956;28;20478;-94
2021/11/08 07:58:37;;;;;;;13.70;5.22;;;7.50;99.90;;;;;;4979880;28;20046;-92
2021/11/08 08:01:03;;;;;;;10.15;4.38;;;7.50;99.90;;;;;;4980317;28;20034;-94
2021/11/08 08:03:29;;;;;;;12.07;4.35;;;7.50;99.90;;;;;;4964017;28;20076;-92
2021/11/08 08:05:58;;;;;;;17.65;5.45;;;7.50;99.90;;;;;;4980275;28;20418;-92
2021/11/08 08:08:24;;;;;;;13.82;4.20;;;7.50;99.90;;;;;;4980444;28;20050;-93
2021/11/08 08:10:51;;;;;;;10.30;4.35;;;7.60;99.90;;;;;;4979923;28;20073;-93
2021/11/08 08:13:22;;;;;;;11.35;4.35;;;7.60;99.90;;;;;;4979927;28;20085;-92
2021/11/08 08:15:48;;;;;;;;;;;7.60;99.90;;;;;;4996470;28;20092;-94
2021/11/08 08:18:15;;;;;;;15.13;4.35;;;7.70;99.90;;;;;;4995939;28;19996;-91
2021/11/08 08:20:41;;;;;;;15.52;4.97;;;7.70;99.90;;;;;;4963265;28;20616;-94
2021/11/08 08:23:07;;;;;;;15.38;4.68;;;7.70;99.90;;;;;;4979966;28;20450;-94
2021/11/08 08:25:33;;;;;;;24.13;5.82;;;7.70;99.90;;;;;;4980159;28;20122;-94
2021/11/08 08:28:00;;;;;;;11.75;4.65;;;7.70;99.90;;;;;;4983714;28;20027;-92
2021/11/08 08:30:27;;;;;;;15.73;4.78;;;7.80;99.90;;;;;;4976499;28;20042;-94
2021/11/08 08:32:53;;;;;;;16.20;4.80;;;7.80;99.90;;;;;;4979172;28;20088;-88
2021/11/08 08:35:19;;;;;;;16.30;5.55;;;7.80;99.90;;;;;;4994493;28;20026;-92
2021/11/08 08:37:45;;;;;;;18.90;5.63;;;7.80;99.90;;;;;;4979387;28;20023;-95
2021/11/08 08:40:11;;;;;;;20.08;6.38;;;7.80;99.90;;;;;;4983939;28;20069;-95
2021/11/08 08:42:37;;;;;;;17.35;6.32;;;7.90;99.90;;;;;;4965947;28;20035;-92
2021/11/08 08:45:05;;;;;;;21.60;6.63;;;7.90;99.90;;;;;;4962874;28;20030;-92
2021/11/08 08:47:31;;;;;;;17.40;5.63;;;7.90;99.90;;;;;;4996376;28;20023;-92
2021/11/08 08:49:57;;;;;;;16.27;5.68;;;8.00;99.90;;;;;;4995477;28;20057;-93
2021/11/08 08:52:23;;;;;;;19.20;5.93;;;8.00;99.90;;;;;;4979134;28;20026;-92
2021/11/08 08:54:49;;;;;;;14.50;5.63;;;8.00;99.90;;;;;;4978545;28;20030;-93
2021/11/08 08:57:15;;;;;;;22.50;5.22;;;8.10;99.90;;;;;;4996975;28;20060;-95
2021/11/08 08:59:42;;;;;;;15.50;5.70;;;8.10;99.90;;;;;;4944822;28;20313;-96
2021/11/08 09:02:09;;;;;;;12.90;4.97;;;8.10;99.90;;;;;;4995672;28;20022;-96
2021/11/08 09:04:36;;;;;;;16.17;5.38;;;8.10;99.90;;;;;;4977946;28;20085;-95
2021/11/08 09:07:02;;;;;;;17.60;5.00;;;8.20;99.90;;;;;;4963515;28;20100;-95
2021/11/08 09:09:28;;;;;;;20.83;5.60;;;8.20;99.90;;;;;;4962721;28;20034;-96
2021/11/08 09:11:53;;;;;;;15.82;6.03;;;8.20;99.90;;;;;;4962547;28;20374;-94
2021/11/08 09:14:19;;;;;;;13.00;4.85;;;8.30;99.90;;;;;;4962600;28;20033;-96
2021/11/08 09:16:46;;;;;;;15.30;5.78;;;8.30;99.90;;;;;;4978615;28;20278;-96
2021/11/08 09:19:12;;;;;;;13.65;5.05;;;8.30;99.90;;;;;;4978669;28;20117;-95
2021/11/08 09:21:40;;;;;;;17.05;5.50;;;8.40;99.90;;;;;;4996342;28;20462;-95
2021/11/08 09:24:06;;;;;;;16.00;5.35;;;8.40;99.90;;;;;;4964591;28;20014;-94
2021/11/08 09:26:35;;;;;;;17.58;6.00;;;8.40;99.90;;;;;;4964692;28;20080;-96
2021/11/08 09:29:01;;;;;;;21.25;5.90;;;8.40;99.90;;;;;;4981348;28;20033;-96
2021/11/08 09:31:27;;;;;;;16.27;5.90;;;8.50;99.90;;;;;;4965534;28;20084;-90
2021/11/08 09:34:02;;;;;;;14.52;5.22;;;8.50;99.90;;;;;;4982518;28;20425;-96
2021/11/08 09:36:30;;;;;;;14.25;5.75;;;8.50;99.90;;;;;;4969389;28;20046;-95
2021/11/08 09:38:57;;;;;;;18.27;5.80;;;8.60;99.90;;;;;;4983038;28;20022;-96
2021/11/08 09:41:32;;;;;;;16.77;5.75;;;8.60;99.90;;;;;;4965738;28;20470;-95
2021/11/08 09:44:01;;;;;;;17.00;5.95;;;8.60;99.90;;;;;;4982519;28;20105;-95
2021/11/08 09:46:30;;;;;;;19.45;7.25;;;8.70;99.90;;;;;;4983748;28;20023;-96
2021/11/08 09:48:56;;;;;;;23.13;7.28;;;8.70;99.90;;;;;;4983401;28;20023;-95
2021/11/08 09:51:23;;;;;;;22.40;6.53;;;8.70;99.90;;;;;;4964439;28;20038;-96
2021/11/08 09:53:49;;;;;;;25.80;7.10;;;8.80;99.90;;;;;;4980311;28;20022;-95
2021/11/08 09:56:15;;;;;;;17.42;6.90;;;8.80;99.90;;;;;;4979854;28;20362;-96
2021/11/08 09:58:41;;;;;;;17.85;5.60;;;8.90;99.90;;;;;;4964421;28;20050;-96
2021/11/08 10:01:14;;;;;;;19.13;6.30;;;8.90;99.90;;;;;;4965540;28;20033;-93
2021/11/08 10:03:41;;;;;;;16.67;5.90;;;8.90;99.90;;;;;;4996411;28;20061;-95
2021/11/08 10:06:07;;;;;;;21.13;6.10;;;9.00;99.90;;;;;;4964479;28;20030;-95
2021/11/08 10:08:38;;;;;;;19.35;5.20;;;9.00;99.90;;;;;;4996734;28;20085;-96
2021/11/08 10:11:15;;;;;;;16.73;5.57;;;9.10;99.90;;;;;;4997964;28;20104;-95
2021/11/08 10:13:42;;;;;;;14.15;5.22;;;9.10;99.90;;;;;;4997596;28;20470;-94
2021/11/08 10:16:11;;;;;;;15.50;5.38;;;9.10;99.90;;;;;;4995708;28;20022;-95
2021/11/08 10:18:41;;;;;;;15.90;4.90;;;9.20;99.90;;;;;;4981027;28;20015;-95
2021/11/08 10:21:13;;;;;;;14.38;4.53;;;9.20;99.90;;;;;;4997722;28;20027;-92
2021/11/08 10:23:42;;;;;;;14.38;4.80;;;9.20;99.90;;;;;;4984806;28;20073;-89
2021/11/08 10:26:24;;;;;;;18.33;5.00;;;9.30;99.90;;;;;;5017287;28;20010;-94
2021/11/08 10:28:59;;;;;;;14.27;4.82;;;9.30;99.90;;;;;;5017280;28;20018;-91
2021/11/08 10:31:31;;;;;;;19.05;5.30;;;9.30;99.90;;;;;;5017280;28;20041;-93
2021/11/08 10:33:58;;;;;;;14.68;4.68;;;9.40;99.90;;;;;;5000901;28;20011;-94
2021/11/08 10:36:24;;;;;;;20.67;5.22;;;9.40;99.90;;;;;;4969411;28;20078;-93
2021/11/08 10:38:53;;;;;;;17.67;5.30;;;9.50;99.90;;;;;;4985175;28;20041;-93
2021/11/08 10:41:24;;;;;;;23.25;5.43;;;9.50;99.90;;;;;;5001012;28;20023;-89
2021/11/08 10:43:54;;;;;;;19.17;5.05;;;9.60;99.90;;;;;;5001122;28;20034;-93
2021/11/08 10:46:24;;;;;;;15.48;5.07;;;9.60;99.90;;;;;;4997091;28;20109;-96
2021/11/08 10:48:53;;;;;;;17.02;5.00;;;9.60;99.90;;;;;;5006646;22;20031;-85
2021/11/08 10:51:22;;;;;;;16.52;4.57;;;9.70;99.90;;;;;;4919015;28;20561;-86
2021/11/08 10:53:56;;;;;;;15.85;4.75;;;9.70;99.90;;;;;;4946249;29;20500;-86
2021/11/08 10:56:26;;;;;;;17.10;4.53;;;9.80;99.90;;;;;;4922575;28;20034;-87
2021/11/08 10:58:54;;;;;;;14.52;4.85;;;9.80;99.90;;;;;;4922229;28;20481;-86
2021/11/08 11:01:31;;;;;;;14.40;4.60;;;9.90;99.90;;;;;;4920171;28;20028;-86
2021/11/08 11:04:00;;;;;;;14.77;4.28;;;9.90;99.90;;;;;;4922765;28;20023;-87
2021/11/08 11:06:50;;;;;;;13.70;4.28;;;9.90;99.90;;;;;;4927424;28;20020;-87
2021/11/08 11:09:22;;;;;;;11.00;4.40;;;10.00;99.90;;;;;;4996124;28;20027;-87
2021/11/08 11:12:04;;;;;;;15.77;3.50;;;10.10;99.90;;;;;;4926311;29;20020;-87
2021/11/08 11:14:46;;;;;;;16.05;3.72;;;10.10;99.90;;;;;;4914762;28;20019;-86
2021/11/08 11:17:25;;;;;;;19.10;4.28;;;10.10;99.90;;;;;;4934457;28;20035;-86
2021/11/08 11:20:19;;;;;;;16.60;4.30;;;10.10;99.90;;;;;;4921745;28;20481;-86
2021/11/08 11:23:04;;;;;;;11.13;3.53;;;10.20;99.90;;;;;;4949330;28;20034;-88
2021/11/08 11:25:33;;;;;;;13.15;3.65;;;10.20;99.90;;;;;;4973602;28;20020;-85
2021/11/08 11:28:01;;;;;;;17.90;4.18;;;10.30;99.90;;;;;;4932066;28;20031;-86
2021/11/08 11:30:45;;;;;;;15.25;4.40;;;10.30;99.90;;;;;;4960129;28;20062;-86
2021/11/08 11:33:23;;;;;;;13.63;3.40;;;10.30;99.90;;;;;;4930835;28;20031;-85
2021/11/08 11:36:01;;;;;;;17.13;4.60;;;10.40;99.90;;;;;;4971287;28;20519;-85
2021/11/08 11:38:31;;;;;;;15.18;4.90;;;10.40;99.90;;;;;;4940789;29;20027;-86
2021/11/08 11:41:02;;;;;;;17.02;4.88;;;10.50;99.90;;;;;;4924773;28;20102;-86
2021/11/08 11:43:38;;;;;;;19.10;5.10;;;10.60;99.90;;;;;;4923463;28;20035;-85
2021/11/08 11:46:11;;;;;;;14.25;4.15;;;10.70;99.90;;;;;;4923324;28;20024;-86
2021/11/08 11:48:37;;;;;;;13.63;4.20;;;10.80;99.90;;;;;;4922902;28;20027;-87
2021/11/08 11:51:06;;;;;;;16.75;5.05;;;10.90;99.90;;;;;;4919567;28;20082;-87
2021/11/08 11:53:40;;;;;;;23.17;5.93;;;11.00;99.90;;;;;;4921985;28;20032;-85
2021/11/08 11:56:10;;;;;;;20.55;5.45;;;11.00;99.90;;;;;;4930496;28;20017;-86
2021/11/08 11:58:38;;;;;;;19.03;5.73;;;11.10;99.90;;;;;;4904647;28;20028;-84
2021/11/08 12:01:06;;;;;;;17.13;4.97;;;11.20;99.90;;;;;;4914675;28;20068;-82
2021/11/08 12:03:33;;;;;;;17.75;5.10;;;11.30;99.90;;;;;;4915379;28;20162;-84
2021/11/08 12:05:59;;;;;;;18.92;4.95;;;11.40;99.90;;;;;;4922248;28;20040;-86
2021/11/08 12:08:38;;;;;;;15.43;4.72;;;11.40;99.90;;;;;;4914554;28;20527;-86
2021/11/08 12:11:07;;;;;;;17.88;5.25;;;11.50;99.90;;;;;;4914701;29;20413;-84
2021/11/08 12:13:40;;;;;;;13.95;4.80;;;11.60;99.90;;;;;;4980692;28;20485;-86
2021/11/08 12:16:21;;;;;;;20.30;5.97;;;11.60;99.90;;;;;;4916143;28;20613;-87
2021/11/08 12:18:50;;;;;;;20.33;6.10;;;11.60;99.90;;;;;;4914868;29;20027;-87
2021/11/08 12:21:40;;;;;;;15.93;5.55;;;11.70;99.90;;;;;;4916369;29;20036;-87
2021/11/08 12:24:18;;;;;;;19.90;5.07;;;11.70;99.90;;;;;;4914636;28;20024;-87
2021/11/08 12:26:44;;;;;;;18.80;4.90;;;11.80;99.90;;;;;;4914588;28;20024;-85
2021/11/08 12:29:18;;;;;;;16.70;4.53;;;11.80;99.90;;;;;;4950054;28;20511;-87
2021/11/08 12:31:45;;;;;;;19.35;4.97;;;11.80;99.90;;;;;;4914224;28;20438;-87
2021/11/08 12:34:18;;;;;;;14.20;4.43;;;11.90;99.90;;;;;;4916821;28;20351;-87
2021/11/08 12:37:02;;;;;;;12.98;4.45;;;11.90;99.90;;;;;;4927396;29;20020;-86
2021/11/08 12:39:29;;;;;;;13.65;4.43;;;11.90;99.90;;;;;;4920864;28;20016;-87
2021/11/08 12:42:02;;;;;;;24.08;5.07;;;12.00;99.90;;;;;;4903519;28;20028;-87
2021/11/08 12:44:44;;;;;;;22.92;5.50;;;12.00;99.90;;;;;;4921843;29;20026;-86
2021/11/08 12:47:12;;;;;;;15.95;4.70;;;12.00;99.90;;;;;;4916550;28;20029;-86
2021/11/08 12:49:55;;;;;;;21.25;5.22;;;12.00;99.90;;;;;;4955039;28;20107;-86
2021/11/08 12:52:27;;;;;;;12.93;4.30;;;12.10;99.90;;;;;;5003333;28;20030;-85
2021/11/08 12:55:15;;;;;;;17.40;4.40;;;12.10;99.90;;;;;;5006576;28;20018;-86
2021/11/08 12:57:56;;;;;;;13.82;4.72;;;12.10;99.90;;;;;;4994361;28;20022;-87
2021/11/08 13:00:28;;;;;;;20.15;5.20;;;12.10;99.90;;;;;;4999830;28;20121;-87
2021/11/08 13:03:03;;;;;;;17.90;4.90;;;12.10;99.90;;;;;;5014979;28;20028;-87
2021/11/08 13:05:41;;;;;;;18.63;4.32;;;12.20;99.90;;;;;;5015174;28;20026;-87
2021/11/08 13:08:19;;;;;;;17.40;4.65;;;12.20;99.90;;;;;;5019987;28;20053;-87
2021/11/08 13:10:56;;;;;;;16.65;3.85;;;12.20;99.90;;;;;;5026208;28;20428;-87
2021/11/08 13:13:23;;;;;;;12.90;3.95;;;12.30;99.90;;;;;;4998943;28;20026;-88
2021/11/08 13:15:49;;;;;;;23.30;6.05;;;12.20;99.90;;;;;;4995309;28;20089;-87
2021/11/08 13:18:15;;;;;;;18.88;4.20;;;12.30;99.90;;;;;;4995011;28;20030;-87
2021/11/08 13:20:44;;;;;;;14.02;4.65;;;12.30;99.90;;;;;;4995298;28;20030;-87
2021/11/08 13:23:23;;;;;;;15.00;4.50;;;12.30;99.90;;;;;;4994906;28;20023;-87
2021/11/08 13:25:54;;;;;;;16.35;5.35;;;12.30;99.90;;;;;;4976870;28;20058;-87
2021/11/08 13:28:23;;;;;;;13.60;3.75;;;12.30;99.90;;;;;;4995542;28;20022;-87
2021/11/08 13:30:50;;;;;;;12.32;3.20;;;12.30;99.90;;;;;;4995064;28;20033;-87
2021/11/08 13:33:20;;;;;;;14.95;3.58;;;12.30;99.90;;;;;;4994631;28;20022;-87
2021/11/08 13:35:48;;;;;;;16.10;3.70;;;12.40;99.90;;;;;;4995090;28;20045;-87
2021/11/08 13:38:31;;;;;;;20.45;3.58;;;12.40;99.90;;;;;;4995234;28;20027;-88
2021/11/08 13:41:22;;;;;;;14.00;3.47;;;12.40;99.90;;;;;;4994547;28;20026;-87
2021/11/08 13:44:01;;;;;;;20.13;4.28;;;12.40;99.90;;;;;;4993935;28;20022;-88
2021/11/08 13:46:30;;;;;;;15.25;3.13;;;12.40;99.90;;;;;;4975009;28;20030;-87
2021/11/08 13:48:58;;;;;;;21.75;4.25;;;12.50;99.90;;;;;;4988120;28;20023;-87
2021/11/08 13:51:41;;;;;;;16.38;3.60;;;12.50;99.90;;;;;;4914424;28;20038;-87
2021/11/08 13:54:10;;;;;;;12.00;2.90;;;12.50;99.90;;;;;;4936700;29;20114;-87
2021/11/08 13:56:38;;;;;;;10.27;3.20;;;12.50;99.90;;;;;;4999193;28;20124;-87
2021/11/08 13:59:07;;;;;;;17.60;3.67;;;12.50;99.90;;;;;;5021989;28;20463;-88
2021/11/08 14:01:37;;;;;;;13.02;3.60;;;12.60;99.90;;;;;;5017649;28;20026;-88
2021/11/08 14:04:05;;;;;;;13.37;3.67;;;12.60;99.90;;;;;;4983053;28;20114;-85
2021/11/08 14:06:42;;;;;;;12.18;3.47;;;12.60;99.90;;;;;;4984113;28;20076;-85
2021/11/08 14:09:18;;;;;;;12.68;3.38;;;12.60;99.90;;;;;;4942336;28;20164;-85
2021/11/08 14:12:22;;;;;;;16.17;3.92;;;12.60;99.90;;;;;;4962928;28;20056;-85
2021/11/08 14:14:51;;;;;;;12.18;3.95;;;12.70;99.90;;;;;;4925408;28;20358;-85
2021/11/08 14:17:18;;;;;;;16.05;4.18;;;12.70;99.90;;;;;;4904870;29;20380;-85
2021/11/08 14:19:52;;;;;;;17.52;4.25;;;12.70;99.90;;;;;;4985595;28;20039;-84
2021/11/08 14:22:17;;;;;;;13.85;4.38;;;12.70;99.90;;;;;;4917098;28;20024;-82
2021/11/08 14:24:47;;;;;;;15.68;4.22;;;12.70;99.90;;;;;;4900389;28;20043;-82
2021/11/08 14:27:21;;;;;;;14.48;3.80;;;12.70;99.90;;;;;;4972175;28;20035;-81
2021/11/08 14:29:48;;;;;;;15.98;3.95;;;12.80;99.90;;;;;;4916449;29;20035;-84
2021/11/08 14:32:21;;;;;;;13.43;3.75;;;12.80;99.90;;;;;;4916712;28;20117;-86
2021/11/08 14:34:57;;;;;;;12.40;3.28;;;12.80;99.90;;;;;;4918723;29;20055;-84
2021/11/08 14:37:27;;;;;;;12.57;3.33;;;12.80;99.90;;;;;;4937555;29;20024;-85